Time;durP1;ratioP1;P1;durP2;ratioP2;P2;SDS_P1;SDS_P2;PMS_P1;PMS_P2;Temp;Humidity;BMP_temperature;BMP_pressure;BME280_temperature;BME280_humidity;BME280_pressure;Samples;Min_cycle;Max_cycle;Signal;HPM_P1;HPM_P2
2021/12/23 00:00:05;;;;;;;7.70;7.00;;;-0.50;99.90;;;;;;5024635;28;20219;-77
2021/12/23 00:02:32;;;;;;;6.90;6.30;;;-0.50;99.90;;;;;;5029387;28;20245;-78
2021/12/23 00:04:59;;;;;;;7.22;6.55;;;-0.50;99.90;;;;;;5025967;28;20219;-78
2021/12/23 00:07:26;;;;;;;7.75;7.05;;;-0.50;99.90;;;;;;5029681;28;20205;-78
2021/12/23 00:10:05;;;;;;;6.57;6.07;;;-0.50;99.90;;;;;;5026797;28;20628;-78
2021/12/23 00:12:34;;;;;;;6.90;6.30;;;-0.50;99.90;;;;;;5028018;28;22363;-77
2021/12/23 00:15:03;;;;;;;7.47;6.75;;;-0.50;99.90;;;;;;5010282;28;20223;-78
2021/12/23 00:17:55;;;;;;;6.70;6.20;;;-0.50;99.90;;;;;;5029096;28;20200;-77
2021/12/23 00:23:25;;;;;;;7.15;6.38;;;-0.50;99.90;;;;;;4980713;28;20199;-78
2021/12/23 00:25:55;;;;;;;7.20;5.80;;;-0.60;99.90;;;;;;5026172;28;20698;-77
2021/12/23 00:28:23;;;;;;;6.75;6.15;;;-0.60;99.90;;;;;;5030170;28;20203;-77
2021/12/23 00:30:50;;;;;;;6.95;6.35;;;-0.60;99.90;;;;;;5025958;28;20735;-77
2021/12/23 00:33:18;;;;;;;6.80;6.20;;;-0.70;99.90;;;;;;5024346;28;20879;-77
2021/12/23 00:35:45;;;;;;;7.13;6.53;;;-0.70;99.90;;;;;;5026668;28;20594;-78
2021/12/23 00:38:19;;;;;;;7.18;6.68;;;-0.70;99.90;;;;;;5025045;28;20212;-77
2021/12/23 00:40:47;;;;;;;7.10;6.50;;;-0.70;99.90;;;;;;5026040;28;20737;-78
2021/12/23 00:43:16;;;;;;;7.18;6.57;;;-0.70;99.90;;;;;;5024233;28;20188;-79
2021/12/23 00:45:43;;;;;;;7.40;6.70;;;-0.80;99.90;;;;;;5036645;23;20369;-73
2021/12/23 00:48:10;;;;;;;7.43;6.72;;;-0.80;99.90;;;;;;5021008;28;20244;-74
2021/12/23 00:50:38;;;;;;;6.60;6.10;;;-0.80;99.90;;;;;;5021529;28;20257;-74
2021/12/23 00:53:08;;;;;;;6.50;6.00;;;-0.90;99.90;;;;;;5024414;28;20211;-74
2021/12/23 00:55:36;;;;;;;7.15;6.43;;;-0.90;99.90;;;;;;5012955;28;20216;-74
2021/12/23 00:58:03;;;;;;;7.55;6.95;;;-0.90;99.90;;;;;;5003178;28;20193;-74
2021/12/23 01:00:31;;;;;;;7.80;7.20;;;-0.90;99.90;;;;;;5002844;28;20659;-74
2021/12/23 01:03:00;;;;;;;7.35;6.65;;;-0.90;99.90;;;;;;5003728;28;20192;-74
2021/12/23 01:05:27;;;;;;;7.10;6.50;;;-0.80;99.90;;;;;;5008891;28;20487;-74
2021/12/23 01:07:56;;;;;;;7.00;6.40;;;-0.90;99.90;;;;;;5004597;28;20287;-74
2021/12/23 01:10:24;;;;;;;7.03;6.00;;;-0.90;99.90;;;;;;5004111;28;20702;-73
2021/12/23 01:12:56;;;;;;;6.50;6.00;;;-0.90;99.90;;;;;;5001570;28;20765;-74
2021/12/23 01:15:57;;;;;;;7.13;6.63;;;-0.90;99.90;;;;;;5005290;28;20293;-74
2021/12/23 01:18:24;;;;;;;7.50;6.80;;;-0.90;99.90;;;;;;5012927;28;20196;-75
2021/12/23 01:20:52;;;;;;;6.97;6.38;;;-0.90;99.90;;;;;;5006160;28;20227;-74
2021/12/23 01:23:23;;;;;;;6.78;6.18;;;-0.90;99.90;;;;;;5009507;28;20196;-73
2021/12/23 01:25:53;;;;;;;6.63;6.13;;;-0.90;99.90;;;;;;5007965;28;20219;-74
2021/12/23 01:28:21;;;;;;;6.82;6.22;;;-0.90;99.90;;;;;;5005188;28;20219;-73
2021/12/23 01:30:48;;;;;;;6.30;5.82;;;-0.90;99.90;;;;;;5005117;28;20223;-75
2021/12/23 01:33:15;;;;;;;6.57;5.97;;;-0.90;99.90;;;;;;5003556;28;20269;-74
2021/12/23 01:35:44;;;;;;;7.40;6.80;;;-0.90;99.90;;;;;;5000731;28;20215;-74
2021/12/23 01:38:11;;;;;;;6.93;6.32;;;-0.90;99.90;;;;;;5003173;28;20667;-74
2021/12/23 01:40:40;;;;;;;7.15;6.55;;;-1.00;99.90;;;;;;5001066;28;20679;-73
2021/12/23 01:43:07;;;;;;;7.28;6.68;;;-1.00;99.90;;;;;;5004548;28;20279;-74
2021/12/23 01:45:35;;;;;;;7.15;6.55;;;-1.00;99.90;;;;;;4998988;28;20677;-74
2021/12/23 01:48:03;;;;;;;6.70;6.05;;;-1.00;99.90;;;;;;5007258;28;20203;-73
2021/12/23 01:50:32;;;;;;;7.95;7.25;;;-1.00;99.90;;;;;;5004283;28;20201;-73
2021/12/23 01:53:00;;;;;;;7.63;7.03;;;-1.10;99.90;;;;;;5006549;28;20691;-73
2021/12/23 01:55:28;;;;;;;7.00;6.40;;;-1.10;99.90;;;;;;5006489;28;20625;-74
2021/12/23 01:57:58;;;;;;;8.00;7.00;;;-1.20;99.90;;;;;;5006818;28;20799;-74
2021/12/23 02:00:29;;;;;;;7.43;6.72;;;-1.10;99.90;;;;;;5007875;28;20193;-73
2021/12/23 02:02:56;;;;;;;7.15;6.55;;;-1.10;99.90;;;;;;5007412;28;20211;-74
2021/12/23 02:05:24;;;;;;;7.38;6.78;;;-1.10;99.90;;;;;;5006946;28;20678;-74
2021/12/23 02:07:51;;;;;;;7.45;6.72;;;-1.10;99.90;;;;;;5009067;28;20231;-72
2021/12/23 02:10:19;;;;;;;6.90;6.30;;;-1.10;99.90;;;;;;5005552;28;20729;-74
2021/12/23 02:12:48;;;;;;;7.43;6.82;;;-1.10;99.90;;;;;;5023413;28;20254;-72
2021/12/23 02:15:18;;;;;;;6.47;5.97;;;-1.10;99.90;;;;;;5005687;28;20232;-75
2021/12/23 02:17:46;;;;;;;7.20;6.57;;;-1.10;99.90;;;;;;5006916;28;20632;-74
2021/12/23 02:20:17;;;;;;;6.97;6.38;;;-1.10;99.90;;;;;;5009756;28;20290;-74
2021/12/23 02:22:44;;;;;;;7.68;6.90;;;-1.10;99.90;;;;;;5005906;28;20216;-73
2021/12/23 02:25:13;;;;;;;8.55;7.20;;;-1.10;99.90;;;;;;5005066;28;20205;-74
2021/12/23 02:27:40;;;;;;;8.07;7.38;;;-1.10;99.90;;;;;;5008650;28;20722;-74
2021/12/23 02:30:10;;;;;;;7.22;6.55;;;-1.20;99.90;;;;;;5004671;28;20193;-73
2021/12/23 02:32:38;;;;;;;7.72;7.10;;;-1.10;99.90;;;;;;5009048;28;20250;-74
2021/12/23 02:35:07;;;;;;;7.30;6.63;;;-1.20;99.90;;;;;;5008693;28;20659;-74
2021/12/23 02:37:35;;;;;;;8.10;6.95;;;-1.30;99.90;;;;;;5005980;28;20224;-74
2021/12/23 02:40:03;;;;;;;8.05;7.38;;;-1.30;99.90;;;;;;5013247;28;20667;-74
2021/12/23 02:42:30;;;;;;;7.32;6.72;;;-1.30;99.90;;;;;;5005581;28;20536;-74
2021/12/23 02:44:58;;;;;;;7.45;6.78;;;-1.40;99.90;;;;;;5007033;28;20196;-74
2021/12/23 02:47:25;;;;;;;7.35;6.70;;;-1.40;99.90;;;;;;5008494;28;20296;-74
2021/12/23 02:49:52;;;;;;;7.88;7.00;;;-1.40;99.90;;;;;;5005097;28;20201;-75
2021/12/23 02:52:20;;;;;;;7.20;6.45;;;-1.40;99.90;;;;;;5006820;28;20229;-73
2021/12/23 02:54:56;;;;;;;6.90;6.40;;;-1.40;99.90;;;;;;5011086;28;20193;-73
2021/12/23 02:57:24;;;;;;;7.45;6.75;;;-1.40;99.90;;;;;;5005717;28;20224;-74
2021/12/23 02:59:51;;;;;;;7.03;6.43;;;-1.40;99.90;;;;;;5001919;28;20205;-74
2021/12/23 03:02:19;;;;;;;7.43;6.70;;;-1.40;99.90;;;;;;5005707;28;20422;-74
2021/12/23 03:04:46;;;;;;;6.97;6.28;;;-1.40;99.90;;;;;;5010251;28;20181;-75
2021/12/23 03:07:13;;;;;;;7.60;7.00;;;-1.50;99.90;;;;;;5018481;28;20236;-75
2021/12/23 03:09:40;;;;;;;7.45;6.75;;;-1.40;99.90;;;;;;5001585;28;20204;-74
2021/12/23 03:12:09;;;;;;;6.78;6.18;;;-1.40;99.90;;;;;;5004404;28;20224;-74
2021/12/23 03:14:36;;;;;;;6.97;6.32;;;-1.50;99.90;;;;;;5010486;28;20200;-74
2021/12/23 03:17:04;;;;;;;6.85;6.28;;;-1.40;99.90;;;;;;5003244;28;20944;-74
2021/12/23 03:19:31;;;;;;;6.32;5.82;;;-1.40;99.90;;;;;;5002525;28;20989;-73
2021/12/23 03:21:58;;;;;;;7.15;6.63;;;-1.40;99.90;;;;;;5001646;28;20213;-74
2021/12/23 03:24:25;;;;;;;6.50;6.00;;;-1.40;99.90;;;;;;5008352;28;20235;-74
2021/12/23 03:26:52;;;;;;;7.35;6.75;;;-1.30;99.90;;;;;;5005784;28;20363;-74
2021/12/23 03:29:20;;;;;;;7.13;6.50;;;-1.30;99.90;;;;;;5002261;28;20258;-74
2021/12/23 03:31:47;;;;;;;6.68;6.07;;;-1.30;99.90;;;;;;5001877;28;20711;-74
2021/12/23 03:34:14;;;;;;;7.35;6.22;;;-1.30;99.90;;;;;;5004993;28;20225;-74
2021/12/23 03:36:41;;;;;;;6.70;6.10;;;-1.30;99.90;;;;;;5005100;28;20228;-75
2021/12/23 03:39:08;;;;;;;7.15;6.03;;;-1.20;99.90;;;;;;5005569;28;20737;-74
2021/12/23 03:41:35;;;;;;;7.30;6.63;;;-1.20;99.90;;;;;;5002909;28;20224;-75
2021/12/23 03:44:03;;;;;;;7.68;6.97;;;-1.20;99.90;;;;;;5003419;28;20560;-74
2021/12/23 03:46:31;;;;;;;6.78;6.22;;;-1.20;99.90;;;;;;5007763;28;20279;-74
2021/12/23 03:48:58;;;;;;;7.57;6.88;;;-1.30;99.90;;;;;;5004237;28;20201;-72
2021/12/23 03:51:25;;;;;;;6.70;6.20;;;-1.30;99.90;;;;;;5000842;28;20717;-74
2021/12/23 03:53:52;;;;;;;7.70;7.00;;;-1.20;99.90;;;;;;5003578;28;20727;-74
2021/12/23 03:56:19;;;;;;;6.20;5.70;;;-1.20;99.90;;;;;;5007823;28;20217;-74
2021/12/23 03:58:46;;;;;;;6.63;6.13;;;-1.20;99.90;;;;;;5010424;28;20207;-76
2021/12/23 04:01:14;;;;;;;7.82;7.03;;;-1.20;99.90;;;;;;5015861;28;20201;-74
2021/12/23 04:03:42;;;;;;;6.93;6.43;;;-1.20;99.90;;;;;;5002464;28;20199;-74
2021/12/23 04:06:09;;;;;;;7.20;6.55;;;-1.20;99.90;;;;;;4998663;28;20216;-75
2021/12/23 04:08:36;;;;;;;7.25;6.72;;;-1.20;99.90;;;;;;5010431;28;20208;-72
2021/12/23 04:11:03;;;;;;;7.80;6.97;;;-1.30;99.90;;;;;;4999909;28;20197;-73
2021/12/23 04:13:30;;;;;;;7.55;6.95;;;-1.30;99.90;;;;;;5004094;28;20282;-74
2021/12/23 04:15:58;;;;;;;7.50;6.78;;;-1.30;99.90;;;;;;5004402;28;20777;-74
2021/12/23 04:18:25;;;;;;;6.85;6.25;;;-1.30;99.90;;;;;;5009710;28;20220;-74
2021/12/23 04:20:56;;;;;;;7.95;7.25;;;-1.30;99.90;;;;;;5004719;28;20209;-74
2021/12/23 04:23:24;;;;;;;8.18;7.40;;;-1.30;99.90;;;;;;5006693;28;20243;-74
2021/12/23 04:25:51;;;;;;;7.22;6.63;;;-1.30;99.90;;;;;;5004605;28;20233;-73
2021/12/23 04:28:19;;;;;;;6.85;6.20;;;-1.30;99.90;;;;;;5004512;28;20220;-74
2021/12/23 04:30:46;;;;;;;7.03;6.43;;;-1.30;99.90;;;;;;5003983;28;20196;-74
2021/12/23 04:33:14;;;;;;;7.72;7.03;;;-1.30;99.90;;;;;;5000176;28;20217;-74
2021/12/23 04:35:41;;;;;;;7.43;6.72;;;-1.30;99.90;;;;;;5008864;28;20568;-74
2021/12/23 04:38:09;;;;;;;9.07;8.23;;;-1.30;99.90;;;;;;5000130;28;20305;-74
2021/12/23 04:40:37;;;;;;;10.50;9.50;;;-1.30;99.90;;;;;;5007871;28;20258;-74
2021/12/23 04:43:05;;;;;;;9.10;8.30;;;-1.20;99.90;;;;;;5006363;28;20265;-74
2021/12/23 04:45:32;;;;;;;8.57;7.88;;;-1.20;99.90;;;;;;5004540;28;20240;-73
2021/12/23 04:48:00;;;;;;;7.85;7.10;;;-1.20;99.90;;;;;;5007105;28;20275;-74
2021/12/23 04:50:28;;;;;;;7.40;6.80;;;-1.10;99.90;;;;;;5005583;28;20197;-74
2021/12/23 04:52:55;;;;;;;7.30;6.57;;;-1.10;99.90;;;;;;5014736;28;20209;-76
2021/12/23 04:55:24;;;;;;;7.63;7.03;;;-1.10;99.90;;;;;;5013697;28;20222;-74
2021/12/23 04:57:51;;;;;;;6.88;6.28;;;-1.30;99.90;;;;;;5003215;28;20269;-74
2021/12/23 05:00:20;;;;;;;7.72;7.03;;;-1.40;99.90;;;;;;5005251;28;20201;-74
2021/12/23 05:02:48;;;;;;;7.20;6.60;;;-1.40;99.90;;;;;;5000797;28;20295;-74
2021/12/23 05:05:16;;;;;;;8.00;7.30;;;-1.40;99.90;;;;;;5001663;28;20833;-73
2021/12/23 05:07:44;;;;;;;7.20;6.70;;;-1.40;99.90;;;;;;5003757;28;20655;-73
2021/12/23 05:10:12;;;;;;;8.00;7.32;;;-1.40;99.90;;;;;;5005469;28;20196;-73
2021/12/23 05:12:44;;;;;;;7.03;6.53;;;-1.40;99.90;;;;;;4998056;28;20583;-75
2021/12/23 05:15:12;;;;;;;8.07;7.38;;;-1.40;99.90;;;;;;5008705;28;20588;-74
2021/12/23 05:17:39;;;;;;;7.43;6.78;;;-1.30;99.90;;;;;;5006008;28;20220;-73
2021/12/23 05:20:08;;;;;;;7.57;6.93;;;-1.30;99.90;;;;;;5006725;28;20196;-74
2021/12/23 05:22:35;;;;;;;7.72;7.03;;;-1.30;99.90;;;;;;5007220;28;20225;-74
2021/12/23 05:25:03;;;;;;;7.22;6.53;;;-1.30;99.90;;;;;;5003988;28;20717;-73
2021/12/23 05:27:30;;;;;;;7.90;7.30;;;-1.30;99.90;;;;;;5002285;28;20216;-74
2021/12/23 05:29:58;;;;;;;7.72;7.07;;;-1.30;99.90;;;;;;5005560;28;20640;-74
2021/12/23 05:32:25;;;;;;;7.72;7.10;;;-1.30;99.90;;;;;;5005163;28;20266;-73
2021/12/23 05:34:52;;;;;;;7.72;6.97;;;-1.40;99.90;;;;;;5003794;28;20279;-73
2021/12/23 05:37:20;;;;;;;7.97;7.30;;;-1.40;99.90;;;;;;5008326;28;20220;-73
2021/12/23 05:39:47;;;;;;;8.00;7.30;;;-1.40;99.90;;;;;;5001481;28;20250;-74
2021/12/23 05:42:14;;;;;;;8.32;7.57;;;-1.40;99.90;;;;;;5001330;28;20223;-74
2021/12/23 05:44:41;;;;;;;7.72;6.93;;;-1.50;99.90;;;;;;5002024;28;20575;-73
2021/12/23 05:47:09;;;;;;;7.55;6.93;;;-1.50;99.90;;;;;;5020082;28;20220;-73
2021/12/23 05:49:36;;;;;;;7.50;6.90;;;-1.50;99.90;;;;;;5004479;28;20216;-73
2021/12/23 05:52:05;;;;;;;8.32;7.63;;;-1.60;99.90;;;;;;5003324;28;20640;-73
2021/12/23 05:54:32;;;;;;;8.18;7.28;;;-1.60;99.90;;;;;;5006204;28;20231;-73
2021/12/23 05:57:02;;;;;;;8.25;7.40;;;-1.60;99.90;;;;;;5006681;28;20228;-74
2021/12/23 05:59:29;;;;;;;7.85;7.15;;;-1.50;99.90;;;;;;5003566;28;20207;-73
2021/12/23 06:01:56;;;;;;;7.20;6.70;;;-1.50;99.90;;;;;;5004741;28;20792;-72
2021/12/23 06:04:25;;;;;;;8.05;7.40;;;-1.50;99.90;;;;;;5003829;28;20623;-74
2021/12/23 06:06:52;;;;;;;7.50;6.80;;;-1.40;99.90;;;;;;5000998;28;20239;-75
2021/12/23 06:09:20;;;;;;;7.72;7.03;;;-1.40;99.90;;;;;;5002028;28;20192;-74
2021/12/23 06:11:47;;;;;;;7.47;6.88;;;-1.40;99.90;;;;;;5000301;28;20668;-74
2021/12/23 06:14:14;;;;;;;7.53;6.88;;;-1.40;99.90;;;;;;5001480;28;20444;-74
2021/12/23 06:16:41;;;;;;;7.82;7.13;;;-1.40;99.90;;;;;;5006965;28;20223;-74
2021/12/23 06:19:08;;;;;;;7.47;6.88;;;-1.40;99.90;;;;;;5004502;28;20197;-73
2021/12/23 06:21:36;;;;;;;7.82;7.10;;;-1.40;99.90;;;;;;5000852;28;20571;-73
2021/12/23 06:24:04;;;;;;;7.78;7.07;;;-1.50;99.90;;;;;;5001395;28;20270;-73
2021/12/23 06:26:31;;;;;;;8.55;7.85;;;-1.50;99.90;;;;;;5003066;28;20231;-73
2021/12/23 06:28:59;;;;;;;8.15;7.45;;;-1.50;99.90;;;;;;5006904;28;20722;-71
2021/12/23 06:31:26;;;;;;;8.23;7.53;;;-1.50;99.90;;;;;;5006259;28;20197;-74
2021/12/23 06:33:53;;;;;;;8.13;7.53;;;-1.50;99.90;;;;;;5005783;28;20220;-75
2021/12/23 06:36:20;;;;;;;8.90;8.10;;;-1.60;99.90;;;;;;5008233;28;20223;-73
2021/12/23 06:38:49;;;;;;;7.93;7.22;;;-1.60;99.90;;;;;;5003446;28;20220;-74
2021/12/23 06:41:18;;;;;;;8.57;7.75;;;-1.70;99.90;;;;;;5022649;28;20717;-74
2021/12/23 06:43:45;;;;;;;8.75;7.93;;;-1.70;99.90;;;;;;5007243;28;20217;-73
2021/12/23 06:46:12;;;;;;;7.72;7.07;;;-1.80;99.90;;;;;;5026259;23;20239;-78
2021/12/23 06:48:39;;;;;;;8.13;7.43;;;-1.80;99.90;;;;;;5039436;28;20811;-77
2021/12/23 06:51:06;;;;;;;7.78;7.07;;;-1.70;99.90;;;;;;5041309;28;20264;-77
2021/12/23 06:53:34;;;;;;;8.98;8.07;;;-1.40;99.90;;;;;;5045690;28;20218;-77
2021/12/23 06:56:02;;;;;;;8.63;7.93;;;-1.30;99.90;;;;;;5041145;28;20211;-77
2021/12/23 06:58:31;;;;;;;9.10;8.30;;;-1.30;99.90;;;;;;5031277;28;20262;-77
2021/12/23 07:00:59;;;;;;;8.40;7.65;;;-1.40;99.90;;;;;;5032787;28;20201;-79
2021/12/23 07:03:36;;;;;;;8.55;7.72;;;-1.50;99.90;;;;;;5031195;28;20223;-78
2021/12/23 07:06:06;;;;;;;8.57;7.80;;;-1.50;99.90;;;;;;5028143;28;20289;-76
2021/12/23 07:08:36;;;;;;;8.48;7.78;;;-1.50;99.90;;;;;;5022430;28;20273;-76
2021/12/23 07:11:06;;;;;;;9.07;8.27;;;-1.50;99.90;;;;;;5018554;28;20196;-76
2021/12/23 07:13:33;;;;;;;7.85;7.15;;;-1.60;99.90;;;;;;5018035;28;20324;-76
2021/12/23 07:16:02;;;;;;;7.93;7.32;;;-1.60;99.90;;;;;;5023319;28;20430;-79
2021/12/23 07:18:29;;;;;;;7.57;6.97;;;-1.60;99.90;;;;;;5022614;28;20295;-76
2021/12/23 07:20:56;;;;;;;8.30;7.50;;;-1.60;99.90;;;;;;5023566;28;20655;-76
2021/12/23 07:23:23;;;;;;;8.80;7.90;;;-1.60;99.90;;;;;;5019306;28;20220;-78
2021/12/23 07:25:51;;;;;;;7.63;7.00;;;-1.60;99.90;;;;;;5015405;28;20488;-76
2021/12/23 07:28:19;;;;;;;8.15;7.50;;;-1.60;99.90;;;;;;5016783;28;20215;-76
2021/12/23 07:30:47;;;;;;;7.38;6.78;;;-1.60;99.90;;;;;;5024089;28;20207;-76
2021/12/23 07:33:14;;;;;;;8.25;7.47;;;-1.60;99.90;;;;;;5020482;28;20267;-77
2021/12/23 07:35:41;;;;;;;8.75;7.95;;;-1.70;99.90;;;;;;5020779;28;20227;-76
2021/12/23 07:38:08;;;;;;;9.13;8.32;;;-1.70;99.90;;;;;;5019213;28;20591;-75
2021/12/23 07:40:35;;;;;;;8.13;7.53;;;-1.60;99.90;;;;;;5025696;28;20253;-77
2021/12/23 07:43:20;;;;;;;8.15;7.55;;;-1.60;99.90;;;;;;5025576;28;20234;-78
2021/12/23 07:45:48;;;;;;;8.45;7.65;;;-1.60;99.90;;;;;;5018312;28;20206;-78
2021/12/23 07:48:15;;;;;;;8.70;7.97;;;-1.50;99.90;;;;;;5017171;28;20321;-76
2021/12/23 07:50:43;;;;;;;8.30;7.50;;;-1.50;99.90;;;;;;5022511;28;20200;-77
2021/12/23 07:53:10;;;;;;;8.32;7.63;;;-1.40;99.90;;;;;;5021458;28;20220;-76
2021/12/23 07:55:39;;;;;;;9.38;8.48;;;-1.40;99.90;;;;;;5020922;28;20708;-77
2021/12/23 07:58:06;;;;;;;10.18;9.13;;;-1.40;99.90;;;;;;5018558;28;20378;-76
2021/12/23 08:00:33;;;;;;;10.13;9.13;;;-1.40;99.90;;;;;;5019438;28;20782;-75
2021/12/23 08:03:01;;;;;;;9.48;8.25;;;-1.50;99.90;;;;;;5018003;28;20280;-74
2021/12/23 08:05:28;;;;;;;9.30;8.45;;;-1.50;99.90;;;;;;5022401;28;20200;-79
2021/12/23 08:07:56;;;;;;;9.82;8.93;;;-1.50;99.90;;;;;;5019129;28;20235;-77
2021/12/23 08:10:23;;;;;;;9.48;8.65;;;-1.40;99.90;;;;;;5020562;28;20203;-76
2021/12/23 08:12:50;;;;;;;10.13;8.63;;;-1.40;99.90;;;;;;5020698;28;20246;-77
2021/12/23 08:15:17;;;;;;;9.95;8.98;;;-1.40;99.90;;;;;;5025314;28;20685;-74
2021/12/23 08:17:44;;;;;;;10.13;9.13;;;-1.30;99.90;;;;;;5023172;28;20227;-77
2021/12/23 08:20:15;;;;;;;11.77;10.48;;;-1.20;99.90;;;;;;5020444;28;20196;-75
2021/12/23 08:22:44;;;;;;;11.88;10.35;;;-1.00;99.90;;;;;;5016374;28;20409;-77
2021/12/23 08:25:12;;;;;;;10.90;9.82;;;-0.80;99.90;;;;;;5019884;28;20196;-75
2021/12/23 08:27:39;;;;;;;10.10;9.20;;;-0.50;99.90;;;;;;5021854;28;20227;-76
2021/12/23 08:30:09;;;;;;;10.80;8.82;;;-0.50;99.90;;;;;;5021573;28;20265;-75
2021/12/23 08:32:36;;;;;;;9.50;8.73;;;-0.50;99.90;;;;;;5019781;28;20235;-78
2021/12/23 08:35:04;;;;;;;9.15;8.35;;;-0.60;99.90;;;;;;5022807;28;20285;-77
2021/12/23 08:37:32;;;;;;;9.20;8.35;;;-0.70;99.90;;;;;;5028130;28;20227;-76
2021/12/23 08:39:59;;;;;;;9.25;8.05;;;-0.80;99.90;;;;;;5020383;28;20476;-76
2021/12/23 08:42:26;;;;;;;9.70;8.90;;;-0.80;99.90;;;;;;5021470;28;20553;-76
2021/12/23 08:44:53;;;;;;;9.35;8.55;;;-0.70;99.90;;;;;;5021220;28;20254;-76
2021/12/23 08:47:22;;;;;;;11.10;9.77;;;-0.70;99.90;;;;;;5026755;28;20222;-77
2021/12/23 08:49:49;;;;;;;10.43;9.43;;;-0.60;99.90;;;;;;5025732;28;20199;-77
2021/12/23 08:52:16;;;;;;;10.65;9.50;;;0.40;99.90;;;;;;5024324;28;20204;-77
2021/12/23 08:54:45;;;;;;;9.98;8.98;;;1.80;99.90;;;;;;5018867;28;20227;-76
2021/12/23 08:57:12;;;;;;;8.48;7.68;;;3.10;99.90;;;;;;5012003;28;20281;-76
2021/12/23 08:59:39;;;;;;;9.80;8.35;;;4.30;99.90;;;;;;5021327;28;20222;-75
2021/12/23 09:02:07;;;;;;;8.48;7.70;;;5.30;99.90;;;;;;5018640;28;20195;-76
2021/12/23 09:04:34;;;;;;;9.18;8.20;;;6.20;99.90;;;;;;5022889;28;20748;-75
2021/12/23 09:07:01;;;;;;;8.85;8.10;;;6.80;99.90;;;;;;5018299;28;20971;-75
2021/12/23 09:09:31;;;;;;;8.13;7.43;;;6.90;99.90;;;;;;5019725;28;20683;-76
2021/12/23 09:12:00;;;;;;;8.88;8.18;;;7.50;99.90;;;;;;5022437;28;20212;-75
2021/12/23 09:14:28;;;;;;;8.77;7.97;;;8.30;99.90;;;;;;5011716;28;20322;-73
2021/12/23 09:16:55;;;;;;;9.95;8.98;;;9.30;99.90;;;;;;5018261;28;20220;-76
2021/12/23 09:19:22;;;;;;;13.45;8.82;;;10.40;99.90;;;;;;5020846;28;20223;-77
2021/12/23 09:21:49;;;;;;;9.68;8.60;;;11.70;99.90;;;;;;5018521;28;20196;-78
2021/12/23 09:24:18;;;;;;;11.02;8.88;;;12.80;99.70;;;;;;5023415;28;20598;-78
2021/12/23 09:26:51;;;;;;;9.45;8.23;;;13.70;96.20;;;;;;5022076;28;20266;-78
2021/12/23 09:32:40;;;;;;;8.80;7.93;;;14.40;93.90;;;;;;5019673;28;20307;-75
2021/12/23 09:34:54;;;;;;;10.15;8.35;;;15.60;90.00;;;;;;5017861;28;20234;-78
2021/12/23 09:37:22;;;;;;;8.18;7.32;;;15.50;86.10;;;;;;5017107;28;20219;-77
2021/12/23 09:39:53;;;;;;;9.02;7.20;;;14.70;85.80;;;;;;5020612;28;20219;-76
2021/12/23 09:42:23;;;;;;;8.05;7.25;;;13.50;87.50;;;;;;5016292;28;20295;-76
2021/12/23 09:44:53;;;;;;;9.38;7.65;;;12.50;90.00;;;;;;5017076;28;20222;-76
2021/12/23 09:47:21;;;;;;;7.68;6.97;;;12.30;90.60;;;;;;5024677;28;20228;-74
2021/12/23 09:49:49;;;;;;;7.93;7.00;;;12.60;90.20;;;;;;5016411;28;20223;-76
2021/12/23 09:52:16;;;;;;;8.27;7.47;;;13.10;88.30;;;;;;5017102;28;20254;-75
2021/12/23 09:54:46;;;;;;;8.48;7.68;;;11.50;90.20;;;;;;5014329;28;20219;-76
2021/12/23 09:57:13;;;;;;;8.50;6.97;;;9.30;93.30;;;;;;5015709;28;20723;-77
2021/12/23 09:59:41;;;;;;;9.00;7.97;;;7.70;95.60;;;;;;5013124;28;20781;-76
2021/12/23 10:02:10;;;;;;;9.27;7.47;;;6.50;97.90;;;;;;5017911;28;22839;-76
2021/12/23 10:04:37;;;;;;;9.45;8.52;;;5.50;99.90;;;;;;5013917;28;20225;-76
2021/12/23 10:07:05;;;;;;;14.48;13.07;;;4.50;99.90;;;;;;5021033;28;20293;-74
2021/12/23 10:09:43;;;;;;;12.55;11.25;;;3.80;99.90;;;;;;5015615;28;20713;-74
2021/12/23 10:31:44;;;;;;;8.82;8.02;;;3.70;99.90;;;;;;5035890;28;20235;-76
2021/12/23 10:37:14;;;;;;;9.38;8.43;;;4.50;99.90;;;;;;5049876;28;20247;-75
2021/12/23 10:39:43;;;;;;;9.65;8.65;;;4.70;99.90;;;;;;5025321;28;20242;-75
2021/12/23 10:42:11;;;;;;;9.80;8.90;;;5.10;99.90;;;;;;5021694;28;20199;-75
2021/12/23 10:44:39;;;;;;;8.93;8.02;;;5.20;99.90;;;;;;5018699;28;20227;-76
2021/12/23 10:47:07;;;;;;;9.43;8.48;;;5.20;99.90;;;;;;5023247;28;20219;-75
2021/12/23 10:49:42;;;;;;;9.73;8.73;;;5.20;99.90;;;;;;5025550;28;20220;-73
2021/12/23 10:52:16;;;;;;;10.38;9.27;;;5.60;99.90;;;;;;5018549;28;20213;-75
2021/12/23 11:00:24;;;;;;;10.00;9.00;;;6.10;99.90;;;;;;5019022;28;20246;-72
2021/12/23 11:03:08;;;;;;;9.93;8.90;;;5.90;99.90;;;;;;5020716;28;20204;-74
2021/12/23 11:05:43;;;;;;;9.25;8.23;;;5.80;99.90;;;;;;5016815;28;20219;-74
2021/12/23 11:08:20;;;;;;;9.27;8.38;;;5.80;99.90;;;;;;5016187;28;20195;-76
2021/12/23 11:11:21;;;;;;;9.88;8.88;;;5.80;99.90;;;;;;5022861;28;20306;-75
2021/12/23 11:28:06;;;;;;;10.38;7.28;;;4.40;99.90;;;;;;5021972;28;20258;-78
2021/12/23 11:36:19;;;;;;;9.93;8.88;;;3.80;99.90;;;;;;5021017;28;20774;-76
2021/12/23 11:41:38;;;;;;;8.35;7.55;;;3.70;99.90;;;;;;5015156;28;20237;-78
2021/12/23 11:44:07;;;;;;;9.57;8.27;;;3.60;99.90;;;;;;5015166;28;20348;-78
2021/12/23 11:46:39;;;;;;;8.75;7.95;;;3.60;99.90;;;;;;5021431;28;20227;-76
2021/12/23 11:49:09;;;;;;;11.40;8.00;;;3.70;99.90;;;;;;5019310;28;20210;-77
2021/12/23 11:51:46;;;;;;;9.88;8.77;;;3.80;99.90;;;;;;5024423;28;20231;-78
2021/12/23 11:54:18;;;;;;;10.88;8.68;;;3.80;99.90;;;;;;5021965;28;20226;-79
2021/12/23 11:56:47;;;;;;;10.35;8.80;;;3.70;99.90;;;;;;5026544;28;20498;-77
2021/12/23 11:59:16;;;;;;;10.70;9.55;;;3.60;99.90;;;;;;5018928;28;20609;-78
2021/12/23 12:01:44;;;;;;;10.70;9.63;;;3.40;99.90;;;;;;5021763;28;20775;-77
2021/12/23 12:04:21;;;;;;;9.75;8.75;;;3.40;99.90;;;;;;5021784;28;20221;-74
2021/12/23 12:06:50;;;;;;;12.93;10.50;;;3.40;99.90;;;;;;5022399;28;20231;-77
2021/12/23 12:09:20;;;;;;;11.95;10.20;;;3.50;99.90;;;;;;5022592;28;20591;-76
2021/12/23 12:12:06;;;;;;;12.75;10.23;;;3.40;99.90;;;;;;5016863;28;20566;-77
2021/12/23 12:14:44;;;;;;;12.07;9.93;;;3.20;99.90;;;;;;5018119;28;20226;-77
2021/12/23 12:17:41;;;;;;;14.23;12.23;;;3.20;99.90;;;;;;5019235;28;20223;-77
2021/12/23 12:20:35;;;;;;;16.70;11.30;;;3.20;99.90;;;;;;5019045;28;20670;-77
2021/12/23 12:23:06;;;;;;;14.05;11.57;;;3.20;99.90;;;;;;5019804;28;20460;-77
2021/12/23 12:25:57;;;;;;;12.93;11.30;;;3.20;99.90;;;;;;5015371;28;20500;-78
2021/12/23 12:28:27;;;;;;;11.63;9.90;;;3.20;99.90;;;;;;5015659;28;20298;-76
2021/12/23 12:30:56;;;;;;;10.77;9.68;;;3.10;99.90;;;;;;5017291;28;20200;-76
2021/12/23 12:33:49;;;;;;;11.18;9.48;;;3.00;99.90;;;;;;5019284;28;20219;-76
2021/12/23 12:36:17;;;;;;;10.85;9.73;;;3.00;99.90;;;;;;5012285;28;20713;-76
2021/12/23 12:38:47;;;;;;;10.80;9.68;;;3.00;99.90;;;;;;5018793;28;20436;-75
2021/12/23 12:41:18;;;;;;;11.15;9.20;;;2.90;99.90;;;;;;5015980;28;20195;-76
2021/12/23 12:44:08;;;;;;;10.68;9.23;;;2.80;99.90;;;;;;5018112;28;20878;-76
2021/12/23 12:49:25;;;;;;;10.25;9.15;;;2.70;99.90;;;;;;5009288;28;20627;-73
2021/12/23 12:51:53;;;;;;;9.23;8.32;;;2.50;99.90;;;;;;5012171;28;20714;-73
2021/12/23 12:54:31;;;;;;;9.73;8.73;;;2.50;99.90;;;;;;5019858;28;20196;-72
2021/12/23 12:57:01;;;;;;;9.10;8.15;;;2.50;99.90;;;;;;5013109;28;20310;-74
2021/12/23 12:59:30;;;;;;;10.20;9.30;;;2.60;99.90;;;;;;4998135;28;20750;-73
2021/12/23 13:01:59;;;;;;;9.13;8.25;;;2.70;99.90;;;;;;4996109;28;20220;-74
2021/12/23 13:04:29;;;;;;;10.27;8.63;;;2.70;99.90;;;;;;4994447;28;20698;-73
2021/12/23 13:06:58;;;;;;;10.07;8.27;;;2.80;99.90;;;;;;4997039;28;20599;-72
2021/12/23 13:09:31;;;;;;;9.63;8.63;;;2.70;99.90;;;;;;4996449;28;20652;-73
2021/12/23 13:12:01;;;;;;;14.00;10.43;;;2.70;99.90;;;;;;4994726;28;20233;-73
2021/12/23 13:14:50;;;;;;;11.45;10.35;;;2.70;99.90;;;;;;4998278;28;20430;-74
2021/12/23 13:17:24;;;;;;;12.23;10.50;;;2.70;99.90;;;;;;4995248;28;20299;-71
2021/12/23 13:19:51;;;;;;;12.20;9.82;;;2.70;99.90;;;;;;4997383;28;20307;-71
2021/12/23 13:22:19;;;;;;;10.23;9.23;;;2.80;99.90;;;;;;4995609;28;20234;-73
2021/12/23 13:24:46;;;;;;;13.05;10.45;;;2.70;99.90;;;;;;5003090;28;20746;-73
2021/12/23 13:27:15;;;;;;;10.45;9.32;;;2.80;99.90;;;;;;4998095;28;20220;-74
2021/12/23 13:29:43;;;;;;;9.77;8.80;;;2.80;99.90;;;;;;4995653;28;20201;-71
2021/12/23 13:32:10;;;;;;;10.43;9.30;;;2.70;99.90;;;;;;4999481;28;20227;-75
2021/12/23 13:34:37;;;;;;;9.77;8.35;;;2.60;99.90;;;;;;4997796;28;20266;-72
2021/12/23 13:37:06;;;;;;;9.13;8.23;;;2.60;99.90;;;;;;4995717;28;20228;-72
2021/12/23 13:39:37;;;;;;;9.32;7.53;;;2.50;99.90;;;;;;4998835;28;20567;-74
2021/12/23 13:42:06;;;;;;;10.75;8.80;;;2.60;99.90;;;;;;5000092;28;20278;-72
2021/12/23 13:44:36;;;;;;;9.45;8.65;;;2.60;99.90;;;;;;4997044;28;20204;-73
2021/12/23 13:47:06;;;;;;;9.48;8.57;;;2.60;99.90;;;;;;5004788;28;20235;-74
2021/12/23 13:49:36;;;;;;;9.80;8.70;;;2.50;99.90;;;;;;5008428;28;20200;-73
2021/12/23 13:52:06;;;;;;;9.18;8.20;;;2.40;99.90;;;;;;5005062;28;20234;-73
2021/12/23 13:54:36;;;;;;;9.23;8.32;;;2.40;99.90;;;;;;5004201;28;20204;-76
2021/12/23 13:57:08;;;;;;;9.43;8.52;;;2.40;99.90;;;;;;5008623;28;20686;-72